sensor_id;sensor_type;location;lat;lon;timestamp;pressure;altitude;pressure_sealevel;temperature;humidity
23229;BME280;11783;50.350;6.576;2023-04-16T00:02:09;96450.47;;;7.94;100.00
23229;BME280;11783;50.350;6.576;2023-04-16T00:04:34;96444.31;;;7.81;100.00
23229;BME280;11783;50.350;6.576;2023-04-16T00:07:00;96443.91;;;7.78;100.00
23229;BME280;11783;50.350;6.576;2023-04-16T00:09:25;96445.91;;;7.64;100.00
23229;BME280;11783;50.350;6.576;2023-04-16T00:11:51;96457.66;;;7.68;100.00
23229;BME280;11783;50.350;6.576;2023-04-16T00:14:16;96447.63;;;7.52;100.00
23229;BME280;11783;50.350;6.576;2023-04-16T00:16:41;96448.13;;;7.42;100.00
23229;BME280;11783;50.350;6.576;2023-04-16T00:19:07;96451.25;;;7.57;100.00
23229;BME280;11783;50.350;6.576;2023-04-16T00:21:32;96460.31;;;7.68;100.00
23229;BME280;11783;50.350;6.576;2023-04-16T00:23:57;96454.13;;;7.74;100.00
23229;BME280;11783;50.350;6.576;2023-04-16T00:26:23;96454.88;;;7.81;100.00
23229;BME280;11783;50.350;6.576;2023-04-16T00:28:48;96456.06;;;7.85;99.79
23229;BME280;11783;50.350;6.576;2023-04-16T00:31:14;96452.16;;;7.70;100.00
23229;BME280;11783;50.350;6.576;2023-04-16T00:33:39;96461.03;;;7.75;100.00
23229;BME280;11783;50.350;6.576;2023-04-16T00:36:04;96460.44;;;7.30;100.00
23229;BME280;11783;50.350;6.576;2023-04-16T00:38:30;96456.66;;;7.19;100.00
23229;BME280;11783;50.350;6.576;2023-04-16T00:40:57;96456.75;;;7.06;100.00
23229;BME280;11783;50.350;6.576;2023-04-16T00:43:25;96455.69;;;7.14;100.00
23229;BME280;11783;50.350;6.576;2023-04-16T00:45:57;96464.22;;;7.16;100.00
23229;BME280;11783;50.350;6.576;2023-04-16T00:48:23;96456.56;;;7.33;100.00
23229;BME280;11783;50.350;6.576;2023-04-16T00:50:51;96463.75;;;7.25;100.00
23229;BME280;11783;50.350;6.576;2023-04-16T00:53:19;96461.72;;;7.21;100.00
23229;BME280;11783;50.350;6.576;2023-04-16T00:55:44;96470.44;;;7.28;100.00
23229;BME280;11783;50.350;6.576;2023-04-16T00:58:10;96468.69;;;7.15;100.00
23229;BME280;11783;50.350;6.576;2023-04-16T01:00:35;96465.94;;;7.04;100.00
23229;BME280;11783;50.350;6.576;2023-04-16T01:03:01;96469.38;;;7.04;100.00
23229;BME280;11783;50.350;6.576;2023-04-16T01:05:26;96464.94;;;7.29;100.00
23229;BME280;11783;50.350;6.576;2023-04-16T01:07:52;96470.31;;;7.41;100.00
23229;BME280;11783;50.350;6.576;2023-04-16T01:10:17;96469.94;;;7.38;100.00
23229;BME280;11783;50.350;6.576;2023-04-16T01:12:42;96465.56;;;7.25;100.00
23229;BME280;11783;50.350;6.576;2023-04-16T01:15:08;96471.34;;;7.15;100.00
23229;BME280;11783;50.350;6.576;2023-04-16T01:17:35;96467.66;;;7.16;100.00
23229;BME280;11783;50.350;6.576;2023-04-16T01:20:00;96469.97;;;7.06;100.00
23229;BME280;11783;50.350;6.576;2023-04-16T01:22:29;96468.47;;;7.17;100.00
23229;BME280;11783;50.350;6.576;2023-04-16T01:24:54;96470.41;;;7.03;100.00
23229;BME280;11783;50.350;6.576;2023-04-16T01:27:20;96466.13;;;6.77;100.00
23229;BME280;11783;50.350;6.576;2023-04-16T01:29:45;96474.22;;;6.44;100.00
23229;BME280;11783;50.350;6.576;2023-04-16T01:32:11;96477.34;;;6.28;100.00
23229;BME280;11783;50.350;6.576;2023-04-16T01:34:36;96468.81;;;6.26;100.00
23229;BME280;11783;50.350;6.576;2023-04-16T01:37:02;96469.88;;;6.18;100.00
23229;BME280;11783;50.350;6.576;2023-04-16T01:39:28;96464.47;;;6.45;100.00
23229;BME280;11783;50.350;6.576;2023-04-16T01:41:53;96458.97;;;6.53;100.00
23229;BME280;11783;50.350;6.576;2023-04-16T01:44:19;96475.06;;;6.38;100.00
23229;BME280;11783;50.350;6.576;2023-04-16T01:46:45;96472.91;;;6.22;100.00
23229;BME280;11783;50.350;6.576;2023-04-16T01:49:11;96475.88;;;6.32;100.00
23229;BME280;11783;50.350;6.576;2023-04-16T01:51:36;96467.78;;;6.33;100.00
23229;BME280;11783;50.350;6.576;2023-04-16T01:54:02;96472.84;;;6.35;100.00
23229;BME280;11783;50.350;6.576;2023-04-16T01:56:27;96470.16;;;6.42;100.00
23229;BME280;11783;50.350;6.576;2023-04-16T01:58:53;96475.72;;;6.33;100.00
23229;BME280;11783;50.350;6.576;2023-04-16T02:01:18;96472.56;;;6.50;100.00
23229;BME280;11783;50.350;6.576;2023-04-16T02:03:44;96474.22;;;6.44;100.00
23229;BME280;11783;50.350;6.576;2023-04-16T02:06:09;96477.59;;;6.58;100.00
23229;BME280;11783;50.350;6.576;2023-04-16T02:08:35;96481.28;;;6.50;100.00
23229;BME280;11783;50.350;6.576;2023-04-16T02:11:00;96477.41;;;6.59;100.00
23229;BME280;11783;50.350;6.576;2023-04-16T02:13:26;96477.22;;;6.54;100.00
23229;BME280;11783;50.350;6.576;2023-04-16T02:15:51;96480.78;;;6.28;100.00
23229;BME280;11783;50.350;6.576;2023-04-16T02:18:17;96470.09;;;6.17;100.00
23229;BME280;11783;50.350;6.576;2023-04-16T02:20:45;96473.88;;;6.34;100.00
23229;BME280;11783;50.350;6.576;2023-04-16T02:23:11;96470.72;;;6.50;100.00
23229;BME280;11783;50.350;6.576;2023-04-16T02:25:44;96476.47;;;6.41;100.00
23229;BME280;11783;50.350;6.576;2023-04-16T02:28:12;96469.41;;;6.28;100.00
23229;BME280;11783;50.350;6.576;2023-04-16T02:30:39;96485.31;;;6.59;100.00
23229;BME280;11783;50.350;6.576;2023-04-16T02:33:05;96477.41;;;6.59;100.00
23229;BME280;11783;50.350;6.576;2023-04-16T02:35:35;96476.38;;;6.60;100.00
23229;BME280;11783;50.350;6.576;2023-04-16T02:38:01;96468.63;;;6.65;100.00
23229;BME280;11783;50.350;6.576;2023-04-16T02:40:27;96472.97;;;6.53;100.00
23229;BME280;11783;50.350;6.576;2023-04-16T02:42:53;96477.84;;;6.50;100.00
23229;BME280;11783;50.350;6.576;2023-04-16T02:45:19;96474.03;;;6.39;100.00
23229;BME280;11783;50.350;6.576;2023-04-16T02:47:45;96474.56;;;6.16;100.00
23229;BME280;11783;50.350;6.576;2023-04-16T02:50:10;96467.59;;;6.28;100.00
23229;BME280;11783;50.350;6.576;2023-04-16T02:52:36;96472.91;;;6.22;100.00
23229;BME280;11783;50.350;6.576;2023-04-16T02:55:01;96471.50;;;6.13;100.00
23229;BME280;11783;50.350;6.576;2023-04-16T02:57:26;96475.72;;;6.33;100.00
23229;BME280;11783;50.350;6.576;2023-04-16T02:59:52;96479.94;;;6.41;100.00
23229;BME280;11783;50.350;6.576;2023-04-16T03:02:17;96473.44;;;6.37;100.00
23229;BME280;11783;50.350;6.576;2023-04-16T03:04:43;96470.94;;;6.55;100.00
23229;BME280;11783;50.350;6.576;2023-04-16T03:07:08;96482.72;;;6.46;100.00
23229;BME280;11783;50.350;6.576;2023-04-16T03:09:34;96480.69;;;6.48;100.00
23229;BME280;11783;50.350;6.576;2023-04-16T03:12:00;96476.38;;;6.60;100.00
23229;BME280;11783;50.350;6.576;2023-04-16T03:14:29;96479.75;;;6.74;100.00
23229;BME280;11783;50.350;6.576;2023-04-16T03:16:54;96482.47;;;6.61;100.00
23229;BME280;11783;50.350;6.576;2023-04-16T03:19:20;96489.38;;;6.62;100.00
23229;BME280;11783;50.350;6.576;2023-04-16T03:21:45;96485.16;;;6.54;100.00
23229;BME280;11783;50.350;6.576;2023-04-16T03:24:10;96491.63;;;6.58;100.00
23229;BME280;11783;50.350;6.576;2023-04-16T03:26:36;96487.84;;;6.41;100.00
23229;BME280;11783;50.350;6.576;2023-04-16T03:29:01;96490.81;;;6.58;100.00
23229;BME280;11783;50.350;6.576;2023-04-16T03:31:27;96483.16;;;6.43;100.00
23229;BME280;11783;50.350;6.576;2023-04-16T03:33:52;96482.81;;;6.26;100.00
23229;BME280;11783;50.350;6.576;2023-04-16T03:36:18;96482.59;;;6.34;100.00
23229;BME280;11783;50.350;6.576;2023-04-16T03:38:43;96473.25;;;6.38;100.00
23229;BME280;11783;50.350;6.576;2023-04-16T03:41:09;96481.59;;;6.29;100.00
23229;BME280;11783;50.350;6.576;2023-04-16T03:43:34;96487.53;;;6.11;100.00
23229;BME280;11783;50.350;6.576;2023-04-16T03:46:00;96476.78;;;6.13;100.00
23229;BME280;11783;50.350;6.576;2023-04-16T03:48:25;96480.03;;;6.15;100.00
23229;BME280;11783;50.350;6.576;2023-04-16T03:50:51;96484.69;;;6.13;100.00
23229;BME280;11783;50.350;6.576;2023-04-16T03:53:16;96482.94;;;6.00;100.00
23229;BME280;11783;50.350;6.576;2023-04-16T03:55:41;96479.47;;;5.86;100.00
23229;BME280;11783;50.350;6.576;2023-04-16T03:58:07;96482.94;;;6.00;100.00
23229;BME280;11783;50.350;6.576;2023-04-16T04:00:32;96482.09;;;6.06;100.00
23229;BME280;11783;50.350;6.576;2023-04-16T04:02:57;96483.88;;;6.12;100.00
23229;BME280;11783;50.350;6.576;2023-04-16T04:05:23;96486.91;;;6.22;100.00
23229;BME280;11783;50.350;6.576;2023-04-16T04:07:49;96482.41;;;6.29;100.00
23229;BME280;11783;50.350;6.576;2023-04-16T04:10:14;96483.81;;;6.32;100.00
23229;BME280;11783;50.350;6.576;2023-04-16T04:12:40;96484.06;;;6.24;100.00
23229;BME280;11783;50.350;6.576;2023-04-16T04:15:06;96488.59;;;6.03;100.00
23229;BME280;11783;50.350;6.576;2023-04-16T04:17:31;96494.72;;;5.97;100.00
23229;BME280;11783;50.350;6.576;2023-04-16T04:19:57;96495.41;;;6.24;100.00
23229;BME280;11783;50.350;6.576;2023-04-16T04:22:22;96494.53;;;6.44;100.00
23229;BME280;11783;50.350;6.576;2023-04-16T04:24:48;96499.81;;;6.44;100.00
23229;BME280;11783;50.350;6.576;2023-04-16T04:27:13;96491.16;;;6.23;100.00
23229;BME280;11783;50.350;6.576;2023-04-16T04:29:38;96497.91;;;6.06;100.00
23229;BME280;11783;50.350;6.576;2023-04-16T04:32:04;96493.81;;;6.23;100.00
23229;BME280;11783;50.350;6.576;2023-04-16T04:34:29;96499.13;;;6.17;100.00
23229;BME280;11783;50.350;6.576;2023-04-16T04:36:55;96497.06;;;6.12;100.00
23229;BME280;11783;50.350;6.576;2023-04-16T04:39:20;96493.78;;;6.30;100.00
23229;BME280;11783;50.350;6.576;2023-04-16T04:41:46;96507.53;;;6.45;100.00
23229;BME280;11783;50.350;6.576;2023-04-16T04:44:12;96502.00;;;6.53;100.00
23229;BME280;11783;50.350;6.576;2023-04-16T04:46:38;96507.09;;;6.48;100.00
23229;BME280;11783;50.350;6.576;2023-04-16T04:49:03;96514.16;;;6.61;100.00
23229;BME280;11783;50.350;6.576;2023-04-16T04:51:28;96510.09;;;6.58;100.00
23229;BME280;11783;50.350;6.576;2023-04-16T04:53:54;96522.47;;;6.64;100.00
23229;BME280;11783;50.350;6.576;2023-04-16T04:56:19;96519.66;;;6.59;100.00
23229;BME280;11783;50.350;6.576;2023-04-16T04:58:45;96525.09;;;6.71;100.00
23229;BME280;11783;50.350;6.576;2023-04-16T05:01:10;96523.47;;;6.63;100.00
23229;BME280;11783;50.350;6.576;2023-04-16T05:03:36;96522.28;;;6.59;100.00
23229;BME280;11783;50.350;6.576;2023-04-16T05:06:01;96523.22;;;6.33;100.00
23229;BME280;11783;50.350;6.576;2023-04-16T05:08:26;96528.44;;;6.47;100.00
23229;BME280;11783;50.350;6.576;2023-04-16T05:10:52;96537.84;;;6.29;100.00
23229;BME280;11783;50.350;6.576;2023-04-16T05:13:17;96531.09;;;6.40;100.00
23229;BME280;11783;50.350;6.576;2023-04-16T05:15:42;96542.50;;;6.34;100.00
23229;BME280;11783;50.350;6.576;2023-04-16T05:18:09;96538.50;;;6.18;100.00
23229;BME280;11783;50.350;6.576;2023-04-16T05:20:35;96533.97;;;6.38;100.00
23229;BME280;11783;50.350;6.576;2023-04-16T05:23:02;96539.41;;;6.44;100.00
23229;BME280;11783;50.350;6.576;2023-04-16T05:25:27;96539.03;;;6.40;100.00
23229;BME280;11783;50.350;6.576;2023-04-16T05:27:52;96548.59;;;6.34;100.00
23229;BME280;11783;50.350;6.576;2023-04-16T05:30:18;96545.75;;;6.29;100.00
23229;BME280;11783;50.350;6.576;2023-04-16T05:32:43;96549.00;;;6.38;100.00
23229;BME280;11783;50.350;6.576;2023-04-16T05:35:09;96556.19;;;6.62;100.00
23229;BME280;11783;50.350;6.576;2023-04-16T05:37:35;96557.75;;;6.77;100.00
23229;BME280;11783;50.350;6.576;2023-04-16T05:40:00;96558.78;;;6.69;100.00
23229;BME280;11783;50.350;6.576;2023-04-16T05:42:25;96563.47;;;6.67;100.00
23229;BME280;11783;50.350;6.576;2023-04-16T05:44:51;96559.84;;;6.61;100.00
23229;BME280;11783;50.350;6.576;2023-04-16T05:47:16;96565.75;;;6.63;100.00
23229;BME280;11783;50.350;6.576;2023-04-16T05:49:42;96565.59;;;6.52;100.00
23229;BME280;11783;50.350;6.576;2023-04-16T05:52:07;96569.91;;;6.40;100.00
23229;BME280;11783;50.350;6.576;2023-04-16T05:54:33;96570.31;;;6.30;100.00
23229;BME280;11783;50.350;6.576;2023-04-16T05:56:59;96575.84;;;6.15;100.00
23229;BME280;11783;50.350;6.576;2023-04-16T05:59:25;96579.69;;;6.19;100.00
23229;BME280;11783;50.350;6.576;2023-04-16T06:01:50;96572.19;;;6.10;100.00
23229;BME280;11783;50.350;6.576;2023-04-16T06:04:16;96581.72;;;6.24;100.00
23229;BME280;11783;50.350;6.576;2023-04-16T06:06:41;96577.88;;;6.06;100.00
23229;BME280;11783;50.350;6.576;2023-04-16T06:09:06;96577.88;;;6.06;100.00
23229;BME280;11783;50.350;6.576;2023-04-16T06:11:32;96582.34;;;6.19;100.00
23229;BME280;11783;50.350;6.576;2023-04-16T06:13:57;96577.25;;;6.24;100.00
23229;BME280;11783;50.350;6.576;2023-04-16T06:16:23;96574.03;;;6.16;100.00
23229;BME280;11783;50.350;6.576;2023-04-16T06:18:48;96579.31;;;6.09;100.00
23229;BME280;11783;50.350;6.576;2023-04-16T06:21:13;96583.75;;;6.22;100.00
23229;BME280;11783;50.350;6.576;2023-04-16T06:23:39;96581.13;;;6.08;100.00
23229;BME280;11783;50.350;6.576;2023-04-16T06:26:05;96575.66;;;6.03;100.00
23229;BME280;11783;50.350;6.576;2023-04-16T06:28:30;96578.69;;;6.14;100.00
23229;BME280;11783;50.350;6.576;2023-04-16T06:30:56;96583.56;;;6.17;100.00
23229;BME280;11783;50.350;6.576;2023-04-16T06:33:21;96583.34;;;6.18;100.00
23229;BME280;11783;50.350;6.576;2023-04-16T06:35:47;96588.44;;;6.20;100.00
23229;BME280;11783;50.350;6.576;2023-04-16T06:38:13;96592.28;;;6.24;100.00
23229;BME280;11783;50.350;6.576;2023-04-16T06:40:38;96597.72;;;6.35;100.00
23229;BME280;11783;50.350;6.576;2023-04-16T06:43:04;96592.03;;;6.32;100.00
23229;BME280;11783;50.350;6.576;2023-04-16T06:45:29;96603.44;;;6.26;100.00
23229;BME280;11783;50.350;6.576;2023-04-16T06:47:55;96601.78;;;6.31;100.00
23229;BME280;11783;50.350;6.576;2023-04-16T06:50:23;96602.00;;;6.36;100.00
23229;BME280;11783;50.350;6.576;2023-04-16T06:52:49;96601.94;;;6.56;100.00
23229;BME280;11783;50.350;6.576;2023-04-16T06:55:14;96608.84;;;6.57;100.00
23229;BME280;11783;50.350;6.576;2023-04-16T06:57:40;96612.50;;;6.56;100.00
23229;BME280;11783;50.350;6.576;2023-04-16T07:00:06;96614.28;;;6.62;100.00
23229;BME280;11783;50.350;6.576;2023-04-16T07:02:31;96608.25;;;6.49;100.00
23229;BME280;11783;50.350;6.576;2023-04-16T07:04:57;96610.03;;;6.61;100.00
23229;BME280;11783;50.350;6.576;2023-04-16T07:07:23;96604.78;;;6.55;100.00
23229;BME280;11783;50.350;6.576;2023-04-16T07:09:48;96612.72;;;6.48;100.00
23229;BME280;11783;50.350;6.576;2023-04-16T07:12:13;96616.38;;;6.47;100.00
23229;BME280;11783;50.350;6.576;2023-04-16T07:14:40;96627.72;;;6.61;100.00
23229;BME280;11783;50.350;6.576;2023-04-16T07:17:05;96630.56;;;6.59;100.00
23229;BME280;11783;50.350;6.576;2023-04-16T07:19:31;96625.84;;;6.68;100.00
23229;BME280;11783;50.350;6.576;2023-04-16T07:22:00;96632.75;;;6.76;100.00
23229;BME280;11783;50.350;6.576;2023-04-16T07:24:25;96625.41;;;6.78;100.00
23229;BME280;11783;50.350;6.576;2023-04-16T07:26:51;96631.19;;;6.48;100.00
23229;BME280;11783;50.350;6.576;2023-04-16T07:29:16;96631.19;;;6.55;100.00
23229;BME280;11783;50.350;6.576;2023-04-16T07:31:42;96635.41;;;6.69;100.00
23229;BME280;11783;50.350;6.576;2023-04-16T07:34:07;96638.22;;;6.81;100.00
23229;BME280;11783;50.350;6.576;2023-04-16T07:36:33;96643.31;;;6.76;100.00
23229;BME280;11783;50.350;6.576;2023-04-16T07:38:58;96649.16;;;6.91;100.00
23229;BME280;11783;50.350;6.576;2023-04-16T07:41:24;96653.56;;;7.04;100.00
23229;BME280;11783;50.350;6.576;2023-04-16T07:43:50;96645.66;;;6.97;100.00
23229;BME280;11783;50.350;6.576;2023-04-16T07:46:15;96645.13;;;6.82;100.00
23229;BME280;11783;50.350;6.576;2023-04-16T07:48:41;96648.03;;;6.60;100.00
23229;BME280;11783;50.350;6.576;2023-04-16T07:51:07;96640.75;;;6.43;100.00
23229;BME280;11783;50.350;6.576;2023-04-16T07:53:32;96635.72;;;6.34;100.00
23229;BME280;11783;50.350;6.576;2023-04-16T07:55:58;96633.28;;;6.20;100.00
23229;BME280;11783;50.350;6.576;2023-04-16T07:58:24;96635.13;;;6.19;100.00
23229;BME280;11783;50.350;6.576;2023-04-16T08:00:50;96644.00;;;6.31;100.00
23229;BME280;11783;50.350;6.576;2023-04-16T08:03:16;96647.00;;;6.61;100.00
23229;BME280;11783;50.350;6.576;2023-04-16T08:05:42;96650.63;;;6.74;100.00
23229;BME280;11783;50.350;6.576;2023-04-16T08:08:07;96651.00;;;6.84;100.00
23229;BME280;11783;50.350;6.576;2023-04-16T08:10:33;96653.00;;;6.95;100.00
23229;BME280;11783;50.350;6.576;2023-04-16T08:13:01;96659.09;;;6.95;100.00
23229;BME280;11783;50.350;6.576;2023-04-16T08:15:27;96667.41;;;6.99;100.00
23229;BME280;11783;50.350;6.576;2023-04-16T08:17:52;96669.06;;;6.87;100.00
23229;BME280;11783;50.350;6.576;2023-04-16T08:20:18;96664.75;;;6.99;100.00
23229;BME280;11783;50.350;6.576;2023-04-16T08:22:44;96673.16;;;6.89;100.00
23229;BME280;11783;50.350;6.576;2023-04-16T08:25:10;96676.56;;;6.96;100.00
23229;BME280;11783;50.350;6.576;2023-04-16T08:27:36;96672.06;;;7.04;100.00
23229;BME280;11783;50.350;6.576;2023-04-16T08:30:01;96674.91;;;7.09;100.00
23229;BME280;11783;50.350;6.576;2023-04-16T08:32:27;96666.75;;;7.10;100.00
23229;BME280;11783;50.350;6.576;2023-04-16T08:34:52;96672.13;;;7.35;100.00
23229;BME280;11783;50.350;6.576;2023-04-16T08:37:17;96674.31;;;7.45;100.00
23229;BME280;11783;50.350;6.576;2023-04-16T08:39:43;96671.38;;;7.21;100.00
23229;BME280;11783;50.350;6.576;2023-04-16T08:42:17;96680.88;;;7.36;100.00
23229;BME280;11783;50.350;6.576;2023-04-16T08:44:47;96684.28;;;7.43;100.00
23229;BME280;11783;50.350;6.576;2023-04-16T08:47:14;96686.09;;;7.49;100.00
23229;BME280;11783;50.350;6.576;2023-04-16T08:49:43;96682.63;;;7.48;100.00
23229;BME280;11783;50.350;6.576;2023-04-16T08:52:14;96687.72;;;7.50;100.00
23229;BME280;11783;50.350;6.576;2023-04-16T08:57:11;96704.00;;;7.78;100.00
23229;BME280;11783;50.350;6.576;2023-04-16T08:59:37;96694.72;;;7.69;100.00
23229;BME280;11783;50.350;6.576;2023-04-16T09:02:04;96706.03;;;7.83;100.00
23229;BME280;11783;50.350;6.576;2023-04-16T09:04:30;96706.94;;;8.02;100.00
23229;BME280;11783;50.350;6.576;2023-04-16T09:06:57;96701.44;;;7.97;100.00
23229;BME280;11783;50.350;6.576;2023-04-16T09:09:25;96708.78;;;7.95;100.00
23229;BME280;11783;50.350;6.576;2023-04-16T09:11:53;96702.66;;;8.01;100.00
23229;BME280;11783;50.350;6.576;2023-04-16T09:14:19;96701.03;;;8.00;100.00
23229;BME280;11783;50.350;6.576;2023-04-16T09:16:45;96700.09;;;8.12;100.00
23229;BME280;11783;50.350;6.576;2023-04-16T09:19:13;96700.88;;;8.19;100.00
23229;BME280;11783;50.350;6.576;2023-04-16T09:21:40;96700.59;;;8.28;100.00
23229;BME280;11783;50.350;6.576;2023-04-16T09:24:10;96712.22;;;8.27;100.00
23229;BME280;11783;50.350;6.576;2023-04-16T09:26:35;96703.31;;;8.21;100.00
23229;BME280;11783;50.350;6.576;2023-04-16T09:29:01;96704.94;;;8.22;100.00
23229;BME280;11783;50.350;6.576;2023-04-16T09:31:26;96708.84;;;8.44;100.00
23229;BME280;11783;50.350;6.576;2023-04-16T09:34:06;96707.91;;;8.57;100.00
23229;BME280;11783;50.350;6.576;2023-04-16T09:36:32;96709.53;;;8.58;100.00
23229;BME280;11783;50.350;6.576;2023-04-16T09:38:58;96708.88;;;8.63;100.00
23229;BME280;11783;50.350;6.576;2023-04-16T09:41:26;96719.78;;;8.73;100.00
23229;BME280;11783;50.350;6.576;2023-04-16T09:46:19;96719.50;;;8.81;100.00
23229;BME280;11783;50.350;6.576;2023-04-16T09:48:45;96722.41;;;8.73;100.00
23229;BME280;11783;50.350;6.576;2023-04-16T09:51:11;96719.25;;;8.64;100.00
23229;BME280;11783;50.350;6.576;2023-04-16T09:53:37;96716.69;;;8.58;100.00
23229;BME280;11783;50.350;6.576;2023-04-16T09:56:04;96717.13;;;8.73;100.00
23229;BME280;11783;50.350;6.576;2023-04-16T09:58:30;96714.84;;;8.58;100.00
23229;BME280;11783;50.350;6.576;2023-04-16T10:01:00;96711.22;;;8.53;100.00
23229;BME280;11783;50.350;6.576;2023-04-16T10:03:30;96714.28;;;8.74;100.00
23229;BME280;11783;50.350;6.576;2023-04-16T10:06:00;96711.41;;;8.94;100.00
23229;BME280;11783;50.350;6.576;2023-04-16T10:08:26;96720.69;;;9.03;100.00
23229;BME280;11783;50.350;6.576;2023-04-16T10:10:53;96719.28;;;8.83;100.00
23229;BME280;11783;50.350;6.576;2023-04-16T10:13:18;96726.31;;;8.70;100.00
23229;BME280;11783;50.350;6.576;2023-04-16T10:15:44;96728.47;;;8.80;100.00
23229;BME280;11783;50.350;6.576;2023-04-16T10:18:09;96726.28;;;8.95;100.00
23229;BME280;11783;50.350;6.576;2023-04-16T10:20:35;96728.72;;;9.15;100.00
23229;BME280;11783;50.350;6.576;2023-04-16T10:23:01;96732.91;;;9.23;100.00
23229;BME280;11783;50.350;6.576;2023-04-16T10:25:27;96728.78;;;9.27;100.00
23229;BME280;11783;50.350;6.576;2023-04-16T10:27:54;96729.75;;;9.32;100.00
23229;BME280;11783;50.350;6.576;2023-04-16T10:30:19;96741.50;;;9.55;100.00
23229;BME280;11783;50.350;6.576;2023-04-16T10:32:46;96736.69;;;9.63;100.00
23229;BME280;11783;50.350;6.576;2023-04-16T10:35:18;96736.69;;;9.63;100.00
23229;BME280;11783;50.350;6.576;2023-04-16T10:37:43;96735.66;;;9.64;100.00
23229;BME280;11783;50.350;6.576;2023-04-16T10:40:25;96745.44;;;9.52;100.00
23229;BME280;11783;50.350;6.576;2023-04-16T10:42:58;96749.84;;;9.40;100.00
23229;BME280;11783;50.350;6.576;2023-04-16T10:45:31;96752.06;;;9.43;100.00
23229;BME280;11783;50.350;6.576;2023-04-16T10:47:57;96747.28;;;9.33;100.00
23229;BME280;11783;50.350;6.576;2023-04-16T10:50:23;96743.25;;;9.31;100.00
23229;BME280;11783;50.350;6.576;2023-04-16T10:52:48;96743.81;;;9.51;100.00
23229;BME280;11783;50.350;6.576;2023-04-16T10:55:37;96741.16;;;9.51;100.00
23229;BME280;11783;50.350;6.576;2023-04-16T10:58:26;96747.06;;;9.65;100.00
23229;BME280;11783;50.350;6.576;2023-04-16T11:00:51;96741.50;;;9.85;100.00
23229;BME280;11783;50.350;6.576;2023-04-16T11:03:17;96733.75;;;9.71;100.00
23229;BME280;11783;50.350;6.576;2023-04-16T11:05:45;96738.94;;;9.78;100.00
23229;BME280;11783;50.350;6.576;2023-04-16T11:08:14;96739.25;;;9.40;100.00
23229;BME280;11783;50.350;6.576;2023-04-16T11:10:42;96746.53;;;9.45;100.00
23229;BME280;11783;50.350;6.576;2023-04-16T11:13:11;96749.59;;;9.60;100.00
23229;BME280;11783;50.350;6.576;2023-04-16T11:15:37;96740.22;;;9.76;100.00
23229;BME280;11783;50.350;6.576;2023-04-16T11:18:02;96741.78;;;9.95;100.00
23229;BME280;11783;50.350;6.576;2023-04-16T11:20:28;96740.91;;;9.83;100.00
23229;BME280;11783;50.350;6.576;2023-04-16T11:22:55;96745.94;;;9.91;100.00
23229;BME280;11783;50.350;6.576;2023-04-16T11:25:28;96752.22;;;10.08;100.00
23229;BME280;11783;50.350;6.576;2023-04-16T11:27:54;96754.59;;;9.98;100.00
23229;BME280;11783;50.350;6.576;2023-04-16T11:30:30;96757.47;;;9.96;100.00
23229;BME280;11783;50.350;6.576;2023-04-16T11:32:57;96754.78;;;10.15;100.00
23229;BME280;11783;50.350;6.576;2023-04-16T11:35:22;96751.19;;;10.09;100.00
23229;BME280;11783;50.350;6.576;2023-04-16T11:37:48;96754.25;;;9.94;100.00
23229;BME280;11783;50.350;6.576;2023-04-16T11:40:13;96754.28;;;9.76;100.00
23229;BME280;11783;50.350;6.576;2023-04-16T11:42:40;96751.59;;;9.94;100.00
23229;BME280;11783;50.350;6.576;2023-04-16T11:45:07;96749.69;;;9.53;100.00
23229;BME280;11783;50.350;6.576;2023-04-16T11:47:47;96764.81;;;9.83;100.00
23229;BME280;11783;50.350;6.576;2023-04-16T11:52:46;96765.81;;;10.00;100.00
23229;BME280;11783;50.350;6.576;2023-04-16T11:55:11;96766.13;;;9.92;100.00
23229;BME280;11783;50.350;6.576;2023-04-16T11:57:36;96762.00;;;9.96;100.00
23229;BME280;11783;50.350;6.576;2023-04-16T12:00:02;96773.34;;;10.15;100.00
23229;BME280;11783;50.350;6.576;2023-04-16T12:02:37;96765.75;;;10.18;100.00
23229;BME280;11783;50.350;6.576;2023-04-16T12:05:24;96768.41;;;10.18;100.00
23229;BME280;11783;50.350;6.576;2023-04-16T12:07:53;96764.91;;;10.06;100.00
23229;BME280;11783;50.350;6.576;2023-04-16T12:10:19;96768.97;;;10.09;100.00
23229;BME280;11783;50.350;6.576;2023-04-16T12:12:44;96772.84;;;10.24;100.00
23229;BME280;11783;50.350;6.576;2023-04-16T12:15:10;96767.78;;;10.35;100.00
23229;BME280;11783;50.350;6.576;2023-04-16T12:17:36;96773.59;;;10.13;100.00
23229;BME280;11783;50.350;6.576;2023-04-16T12:20:12;96776.13;;;10.08;100.00
23229;BME280;11783;50.350;6.576;2023-04-16T12:22:46;96774.16;;;10.15;100.00
23229;BME280;11783;50.350;6.576;2023-04-16T12:25:16;96776.34;;;10.07;100.00
23229;BME280;11783;50.350;6.576;2023-04-16T12:30:11;96784.56;;;10.17;100.00
23229;BME280;11783;50.350;6.576;2023-04-16T12:32:37;96787.59;;;9.90;100.00
23229;BME280;11783;50.350;6.576;2023-04-16T12:35:03;96791.66;;;9.93;100.00
23229;BME280;11783;50.350;6.576;2023-04-16T12:37:29;96786.97;;;10.07;100.00
23229;BME280;11783;50.350;6.576;2023-04-16T12:39:54;96792.84;;;10.27;100.00
23229;BME280;11783;50.350;6.576;2023-04-16T12:42:20;96795.28;;;10.40;100.00
23229;BME280;11783;50.350;6.576;2023-04-16T12:44:45;96794.38;;;10.46;100.00
23229;BME280;11783;50.350;6.576;2023-04-16T12:47:11;96801.94;;;10.61;99.26
23229;BME280;11783;50.350;6.576;2023-04-16T12:49:36;96800.31;;;10.60;98.88
23229;BME280;11783;50.350;6.576;2023-04-16T12:52:02;96797.03;;;10.46;99.94
23229;BME280;11783;50.350;6.576;2023-04-16T12:54:27;96786.50;;;10.28;100.00
23229;BME280;11783;50.350;6.576;2023-04-16T12:56:58;96789.03;;;10.35;100.00
23229;BME280;11783;50.350;6.576;2023-04-16T12:59:23;96796.53;;;10.38;100.00
23229;BME280;11783;50.350;6.576;2023-04-16T13:01:48;96779.31;;;10.28;100.00
23229;BME280;11783;50.350;6.576;2023-04-16T13:04:14;96783.47;;;10.24;100.00
23229;BME280;11783;50.350;6.576;2023-04-16T13:06:40;96784.75;;;10.34;100.00